createdAt,value
2023-02-18T00:01:01.584Z,9.69
2023-02-18T00:03:29.268Z,9.69
2023-02-18T00:05:56.247Z,9.70
2023-02-18T00:08:22.942Z,9.69
2023-02-18T00:10:49.467Z,9.70
2023-02-18T00:13:16.083Z,9.71
2023-02-18T00:15:42.677Z,9.71
2023-02-18T00:18:09.343Z,9.70
2023-02-18T00:20:38.295Z,9.71
2023-02-18T00:23:04.855Z,9.71
2023-02-18T00:25:31.354Z,9.72
2023-02-18T00:27:57.924Z,9.73
2023-02-18T00:30:24.440Z,9.73
2023-02-18T00:32:52.455Z,9.73
2023-02-18T00:35:19.403Z,9.75
2023-02-18T00:37:45.873Z,9.73
2023-02-18T00:40:16.471Z,9.74
2023-02-18T00:42:46.500Z,9.73
2023-02-18T00:45:13.317Z,9.73
2023-02-18T00:47:39.800Z,9.72
2023-02-18T00:50:10.741Z,9.71
2023-02-18T00:52:37.372Z,9.69
2023-02-18T00:55:04.274Z,9.69
2023-02-18T00:57:30.877Z,9.68
2023-02-18T00:59:57.474Z,9.67
2023-02-18T01:02:23.883Z,9.65
2023-02-18T01:04:50.370Z,9.65
2023-02-18T01:07:17.499Z,9.65
2023-02-18T01:09:44.486Z,9.62
2023-02-18T01:12:10.968Z,9.62
2023-02-18T01:14:37.357Z,9.61
2023-02-18T01:17:04.017Z,9.61
2023-02-18T01:19:30.593Z,9.60
2023-02-18T01:21:57.111Z,9.58
2023-02-18T01:24:23.698Z,9.59
2023-02-18T01:26:53.175Z,9.58
2023-02-18T01:29:19.701Z,9.56
2023-02-18T01:31:46.311Z,9.54
2023-02-18T01:34:12.876Z,9.52
2023-02-18T01:36:39.297Z,9.53
2023-02-18T01:39:06.633Z,9.52
2023-02-18T01:41:33.067Z,9.49
2023-02-18T01:44:22.200Z,9.48
2023-02-18T01:46:49.346Z,9.42
2023-02-18T01:49:19.539Z,9.40
2023-02-18T01:51:50.364Z,9.37
2023-02-18T01:54:27.222Z,9.36
2023-02-18T01:57:06.807Z,9.36
2023-02-18T01:59:38.799Z,9.32
2023-02-18T02:02:10.905Z,9.30
2023-02-18T02:04:37.473Z,9.28
2023-02-18T02:07:05.128Z,9.30
2023-02-18T02:09:33.995Z,9.29
2023-02-18T02:12:15.582Z,9.29
2023-02-18T02:15:19.756Z,9.28
2023-02-18T02:18:03.661Z,9.29
2023-02-18T02:20:54.891Z,9.26
2023-02-18T02:23:53.627Z,9.25
2023-02-18T02:26:44.654Z,9.23
2023-02-18T02:29:16.928Z,9.19
2023-02-18T02:32:09.922Z,9.22
2023-02-18T02:34:46.781Z,9.22
2023-02-18T02:37:25.550Z,9.22
2023-02-18T02:40:15.395Z,9.21
2023-02-18T02:43:08.299Z,9.22
2023-02-18T02:45:34.677Z,9.22
2023-02-18T02:48:21.528Z,9.23
2023-02-18T02:50:56.917Z,9.23
2023-02-18T02:53:27.555Z,9.23
2023-02-18T02:55:56.190Z,9.24
2023-02-18T02:58:23.534Z,9.24
2023-02-18T03:01:18.109Z,9.27
2023-02-18T03:03:56.752Z,9.25
2023-02-18T03:06:37.791Z,9.27
2023-02-18T03:09:46.251Z,9.27
2023-02-18T03:12:24.628Z,9.29
2023-02-18T03:15:29.086Z,9.30
2023-02-18T03:18:03.234Z,9.31
2023-02-18T03:20:36.792Z,9.31
2023-02-18T03:23:09.256Z,9.32
2023-02-18T03:25:37.688Z,9.32
2023-02-18T03:28:13.627Z,9.35
2023-02-18T03:30:43.402Z,9.36
2023-02-18T03:33:15.767Z,9.37
2023-02-18T03:35:43.876Z,9.38
2023-02-18T03:38:23.771Z,9.40
2023-02-18T03:40:50.962Z,9.41
2023-02-18T03:43:17.976Z,9.42
2023-02-18T03:45:44.361Z,9.43
2023-02-18T03:48:10.837Z,9.43
2023-02-18T03:50:37.396Z,9.44
2023-02-18T03:53:03.787Z,9.43
2023-02-18T03:55:30.234Z,9.43
2023-02-18T03:57:56.665Z,9.43
2023-02-18T04:00:23.139Z,9.42
2023-02-18T04:02:49.515Z,9.43
2023-02-18T04:05:16.028Z,9.43
2023-02-18T04:07:42.418Z,9.45
2023-02-18T04:10:09.421Z,9.44
2023-02-18T04:12:35.836Z,9.44
2023-02-18T04:15:02.214Z,9.44
2023-02-18T04:17:28.764Z,9.46
2023-02-18T04:19:55.131Z,9.46
2023-02-18T04:22:21.541Z,9.48
2023-02-18T04:24:47.949Z,9.50
2023-02-18T04:27:14.368Z,9.49
2023-02-18T04:29:41.172Z,9.52
2023-02-18T04:32:07.626Z,9.53
2023-02-18T04:34:34.063Z,9.54
2023-02-18T04:37:00.566Z,9.56
2023-02-18T04:39:26.994Z,9.56
2023-02-18T04:41:53.576Z,9.57
2023-02-18T04:44:19.969Z,9.57
2023-02-18T04:46:46.324Z,9.56
2023-02-18T04:49:12.806Z,9.56
2023-02-18T04:51:39.172Z,9.57
2023-02-18T04:54:05.689Z,9.56
2023-02-18T04:56:32.080Z,9.55
2023-02-18T04:58:58.508Z,9.55
2023-02-18T05:01:24.929Z,9.55
2023-02-18T05:03:51.376Z,9.55
2023-02-18T05:06:17.914Z,9.55
2023-02-18T05:08:44.318Z,9.55
2023-02-18T05:11:10.815Z,9.56
2023-02-18T05:13:37.254Z,9.56
2023-02-18T05:16:03.905Z,9.56
2023-02-18T05:18:30.500Z,9.56
2023-02-18T05:20:56.916Z,9.56
2023-02-18T05:23:24.511Z,9.56
2023-02-18T05:25:51.085Z,9.55
2023-02-18T05:28:17.568Z,9.56
2023-02-18T05:30:43.955Z,9.55
2023-02-18T05:33:10.510Z,9.55
2023-02-18T05:35:36.944Z,9.55
2023-02-18T05:38:03.407Z,9.55
2023-02-18T05:40:30.413Z,9.55
2023-02-18T05:42:56.799Z,9.56
2023-02-18T05:45:23.398Z,9.56
2023-02-18T05:47:49.777Z,9.58
2023-02-18T05:50:16.448Z,9.59
2023-02-18T05:52:42.864Z,9.61
2023-02-18T05:55:09.246Z,9.62
2023-02-18T05:57:35.666Z,9.63
2023-02-18T06:00:02.283Z,9.65
2023-02-18T06:02:28.726Z,9.67
2023-02-18T06:04:55.081Z,9.67
2023-02-18T06:07:21.536Z,9.70
2023-02-18T06:09:48.364Z,9.70
2023-02-18T06:12:14.775Z,9.70
2023-02-18T06:14:42.312Z,9.73
2023-02-18T06:17:11.340Z,9.75
2023-02-18T06:19:37.847Z,9.75
2023-02-18T06:22:04.715Z,9.75
2023-02-18T06:24:31.163Z,9.76
2023-02-18T06:26:57.591Z,9.75
2023-02-18T06:29:24.378Z,9.76
2023-02-18T06:31:51.300Z,9.76
2023-02-18T06:34:17.781Z,9.76
2023-02-18T06:36:44.195Z,9.76
2023-02-18T06:39:10.596Z,9.77
2023-02-18T06:41:36.996Z,9.77
2023-02-18T06:44:03.577Z,9.79
2023-02-18T06:46:29.986Z,9.79
2023-02-18T06:48:56.440Z,9.79
2023-02-18T06:51:23.461Z,9.80
2023-02-18T06:53:50.011Z,9.79
2023-02-18T06:56:16.496Z,9.79
2023-02-18T06:58:42.900Z,9.79
2023-02-18T07:01:09.431Z,9.77
2023-02-18T07:03:35.980Z,9.76
2023-02-18T07:06:02.504Z,9.75
2023-02-18T07:08:30.917Z,9.73
2023-02-18T07:10:57.351Z,9.74
2023-02-18T07:13:23.810Z,9.73
2023-02-18T07:15:50.249Z,9.74
2023-02-18T07:18:16.723Z,9.74
2023-02-18T07:20:43.132Z,9.75
2023-02-18T07:23:11.136Z,9.76
2023-02-18T07:25:37.575Z,9.74
2023-02-18T07:28:04.102Z,9.75
2023-02-18T07:30:30.974Z,9.74
2023-02-18T07:32:57.483Z,9.73
2023-02-18T07:35:23.914Z,9.74
2023-02-18T07:37:51.022Z,9.74
2023-02-18T07:40:20.554Z,9.75
2023-02-18T07:42:47.465Z,9.75
2023-02-18T07:45:14.558Z,9.76
2023-02-18T07:47:42.474Z,9.77
2023-02-18T07:50:10.080Z,9.77
2023-02-18T07:52:36.453Z,9.77
2023-02-18T07:55:02.901Z,9.78
2023-02-18T07:57:29.291Z,9.77
2023-02-18T07:59:55.895Z,9.75
2023-02-18T08:02:24.308Z,9.76
2023-02-18T08:04:50.938Z,9.73
2023-02-18T08:07:19.371Z,9.71
2023-02-18T08:09:45.934Z,9.73
2023-02-18T08:12:12.483Z,9.74
2023-02-18T08:14:38.895Z,9.73
2023-02-18T08:17:05.348Z,9.73
2023-02-18T08:19:31.757Z,9.72
2023-02-18T08:22:01.791Z,9.74
2023-02-18T08:24:28.234Z,9.74
2023-02-18T08:27:00.802Z,9.72
2023-02-18T08:29:27.945Z,9.69
2023-02-18T08:31:55.195Z,9.65
2023-02-18T08:34:21.698Z,9.61
2023-02-18T08:36:48.107Z,9.58
2023-02-18T08:39:14.477Z,9.55
2023-02-18T08:41:40.865Z,9.55
2023-02-18T08:44:07.298Z,9.54
2023-02-18T08:46:34.983Z,9.52
2023-02-18T08:49:02.240Z,9.52
2023-02-18T08:51:28.749Z,9.50
2023-02-18T08:53:55.140Z,9.49
2023-02-18T08:56:21.516Z,9.48
2023-02-18T08:58:48.000Z,9.46
2023-02-18T09:01:14.469Z,9.46
2023-02-18T09:03:41.333Z,9.49
2023-02-18T09:06:08.306Z,9.45
2023-02-18T09:08:34.977Z,9.47
2023-02-18T09:11:04.479Z,9.47
2023-02-18T09:13:31.820Z,9.46
2023-02-18T09:16:04.214Z,9.50
2023-02-18T09:18:31.686Z,9.51
2023-02-18T09:20:59.930Z,9.53
2023-02-18T09:23:28.435Z,9.53
2023-02-18T09:25:55.219Z,9.54
2023-02-18T09:28:21.811Z,9.56
2023-02-18T09:30:48.460Z,9.57
2023-02-18T09:33:15.573Z,9.59
2023-02-18T09:35:43.604Z,9.61
2023-02-18T09:38:11.544Z,9.63
2023-02-18T09:40:42.176Z,9.66
2023-02-18T09:43:19.068Z,9.68
2023-02-18T09:45:46.048Z,9.69
2023-02-18T09:48:12.528Z,9.71
2023-02-18T09:50:38.923Z,9.72
2023-02-18T09:53:05.404Z,9.73
2023-02-18T09:55:41.526Z,9.78
2023-02-18T09:58:17.629Z,9.81
2023-02-18T10:01:03.655Z,9.83
2023-02-18T10:03:30.575Z,9.83
2023-02-18T10:06:02.762Z,9.85
2023-02-18T10:08:34.290Z,9.87
2023-02-18T10:11:01.084Z,9.90
2023-02-18T10:13:30.646Z,9.98
2023-02-18T10:15:57.256Z,10.03
2023-02-18T10:18:33.572Z,10.06
2023-02-18T10:21:10.281Z,10.06
2023-02-18T10:23:40.643Z,10.11
2023-02-18T10:26:13.300Z,10.16
2023-02-18T10:28:40.279Z,10.18
2023-02-18T10:31:11.222Z,10.19
2023-02-18T10:34:14.213Z,10.28
2023-02-18T10:36:46.940Z,10.36
2023-02-18T10:39:24.724Z,10.43
2023-02-18T10:42:22.596Z,10.47
2023-02-18T10:45:15.983Z,10.47
2023-02-18T10:48:04.513Z,10.55
2023-02-18T10:50:37.069Z,10.63
2023-02-18T10:53:12.689Z,10.66
2023-02-18T10:55:42.840Z,10.71
2023-02-18T10:58:46.794Z,10.82
2023-02-18T11:01:20.995Z,10.90
2023-02-18T11:03:50.622Z,10.93
2023-02-18T11:06:17.531Z,10.97
2023-02-18T11:08:46.445Z,10.99
2023-02-18T11:11:20.671Z,11.12
2023-02-18T11:13:54.173Z,11.13
2023-02-18T11:16:35.928Z,11.14
2023-02-18T11:19:04.288Z,11.18
2023-02-18T11:21:38.358Z,11.17
2023-02-18T11:24:15.120Z,11.09
2023-02-18T11:26:44.193Z,11.09
2023-02-18T11:29:24.178Z,11.14
2023-02-18T11:31:55.164Z,11.06
2023-02-18T11:34:31.732Z,10.96
2023-02-18T11:37:18.316Z,10.92
2023-02-18T11:39:47.469Z,10.83
2023-02-18T11:42:16.919Z,10.80
2023-02-18T11:44:52.257Z,10.86
2023-02-18T11:47:19.500Z,10.90
2023-02-18T11:50:00.261Z,10.94
2023-02-18T11:52:33.023Z,10.88
2023-02-18T11:55:20.235Z,10.92
2023-02-18T11:57:56.927Z,10.91
2023-02-18T12:00:31.645Z,10.92
2023-02-18T12:03:02.117Z,10.98
2023-02-18T12:05:29.971Z,10.98
2023-02-18T12:08:02.200Z,10.95
2023-02-18T12:10:34.679Z,10.98
2023-02-18T12:13:21.449Z,11.01
2023-02-18T12:16:15.127Z,11.04
2023-02-18T12:19:12.481Z,11.09
2023-02-18T12:21:58.488Z,11.07
2023-02-18T12:24:46.764Z,11.12
2023-02-18T12:27:20.920Z,11.15
2023-02-18T12:29:53.118Z,11.18
2023-02-18T12:32:48.177Z,11.31
2023-02-18T12:35:39.820Z,11.39
2023-02-18T12:38:30.277Z,11.50
2023-02-18T12:41:21.482Z,11.58
2023-02-18T12:44:01.189Z,11.50
2023-02-18T12:46:40.956Z,11.48
2023-02-18T12:49:07.306Z,11.52
2023-02-18T12:51:39.653Z,11.57
2023-02-18T12:54:27.310Z,11.67
2023-02-18T12:57:21.710Z,11.66
2023-02-18T12:59:56.817Z,11.78
2023-02-18T13:03:00.461Z,11.84
2023-02-18T13:05:59.064Z,11.86
2023-02-18T13:08:56.144Z,11.80
2023-02-18T13:11:29.839Z,11.71
2023-02-18T13:14:05.270Z,11.67
2023-02-18T13:16:34.061Z,11.56
2023-02-18T13:19:19.804Z,11.50
2023-02-18T13:21:49.621Z,11.46
2023-02-18T13:24:33.041Z,11.41
2023-02-18T13:27:13.214Z,11.41
2023-02-18T13:29:53.403Z,11.42
2023-02-18T13:32:25.808Z,11.43
2023-02-18T13:35:05.224Z,11.45
2023-02-18T13:38:00.303Z,11.47
2023-02-18T13:40:30.944Z,11.53
2023-02-18T13:43:29.168Z,11.58
2023-02-18T13:46:07.769Z,11.61
2023-02-18T13:48:42.805Z,11.63
2023-02-18T13:51:10.169Z,11.68
2023-02-18T13:53:42.647Z,11.74
2023-02-18T13:56:27.301Z,11.81
2023-02-18T13:59:11.693Z,11.85
2023-02-18T14:01:39.652Z,11.83
2023-02-18T14:04:41.791Z,11.86
2023-02-18T14:07:33.220Z,11.94
2023-02-18T14:10:01.796Z,12.00
2023-02-18T14:12:39.160Z,12.01
2023-02-18T14:15:20.764Z,12.01
2023-02-18T14:18:15.234Z,12.07
2023-02-18T14:20:41.625Z,12.10
2023-02-18T14:23:20.178Z,12.14
2023-02-18T14:25:57.229Z,12.11
2023-02-18T14:28:38.857Z,12.09
2023-02-18T14:31:11.836Z,12.08
2023-02-18T14:33:52.243Z,12.10
2023-02-18T14:36:30.768Z,12.12
2023-02-18T14:39:21.844Z,12.14
2023-02-18T14:42:12.262Z,12.19
2023-02-18T14:45:09.537Z,12.14
2023-02-18T14:48:00.814Z,12.09
2023-02-18T14:50:33.497Z,12.05
2023-02-18T14:53:05.580Z,12.01
2023-02-18T14:55:35.961Z,11.96
2023-02-18T14:58:07.098Z,11.94
2023-02-18T15:00:39.626Z,11.92
2023-02-18T15:03:14.020Z,11.91
2023-02-18T15:05:40.548Z,11.87
2023-02-18T15:08:15.109Z,11.83
2023-02-18T15:10:48.499Z,11.82
2023-02-18T15:13:21.067Z,11.84
2023-02-18T15:15:54.479Z,11.82
2023-02-18T15:18:31.630Z,11.81
2023-02-18T15:21:01.882Z,11.79
2023-02-18T15:23:29.835Z,11.79
2023-02-18T15:25:57.577Z,11.79
2023-02-18T15:28:30.646Z,11.78
2023-02-18T15:31:02.459Z,11.77
2023-02-18T15:33:29.590Z,11.73
2023-02-18T15:36:04.350Z,11.73
2023-02-18T15:38:31.289Z,11.69
2023-02-18T15:40:59.385Z,11.73
2023-02-18T15:43:30.002Z,11.72
2023-02-18T15:45:58.819Z,11.70
2023-02-18T15:48:44.880Z,11.69
2023-02-18T15:51:17.787Z,11.65
2023-02-18T15:53:48.842Z,11.62
2023-02-18T15:56:24.155Z,11.59
2023-02-18T15:58:50.587Z,11.56
2023-02-18T16:01:28.148Z,11.56
2023-02-18T16:03:56.110Z,11.51
2023-02-18T16:06:27.001Z,11.49
2023-02-18T16:09:03.988Z,11.46
2023-02-18T16:11:35.009Z,11.42
2023-02-18T16:14:01.766Z,11.39
2023-02-18T16:16:36.585Z,11.39
2023-02-18T16:19:04.241Z,11.36
2023-02-18T16:21:31.021Z,11.34
2023-02-18T16:24:00.147Z,11.32
2023-02-18T16:26:40.103Z,11.33
2023-02-18T16:29:23.745Z,11.33
2023-02-18T16:31:50.298Z,11.30
2023-02-18T16:34:19.006Z,11.27
2023-02-18T16:37:04.273Z,11.26
2023-02-18T16:39:33.848Z,11.25
2023-02-18T16:42:00.394Z,11.22
2023-02-18T16:44:27.250Z,11.21
2023-02-18T16:46:53.859Z,11.18
2023-02-18T16:49:20.841Z,11.18
2023-02-18T16:51:48.995Z,11.17
2023-02-18T16:54:16.263Z,11.15
2023-02-18T16:56:42.639Z,11.12
2023-02-18T16:59:09.117Z,11.12
2023-02-18T17:01:41.266Z,11.10
2023-02-18T17:04:12.736Z,11.10
2023-02-18T17:06:39.346Z,11.08
2023-02-18T17:09:17.077Z,11.08
2023-02-18T17:11:45.872Z,11.04
2023-02-18T17:14:20.204Z,11.04
2023-02-18T17:16:47.813Z,11.02
2023-02-18T17:19:15.160Z,11.01
2023-02-18T17:21:42.421Z,10.99
2023-02-18T17:24:16.161Z,11.01
2023-02-18T17:26:43.457Z,10.99
2023-02-18T17:29:10.657Z,10.97
2023-02-18T17:31:44.546Z,10.96
2023-02-18T17:34:16.623Z,10.95
2023-02-18T17:36:45.374Z,10.93
2023-02-18T17:39:16.474Z,10.92
2023-02-18T17:41:42.985Z,10.90
2023-02-18T17:44:16.981Z,10.91
2023-02-18T17:46:43.741Z,10.89
2023-02-18T17:49:10.229Z,10.89
2023-02-18T17:51:38.452Z,10.89
2023-02-18T17:54:17.810Z,10.89
2023-02-18T17:56:45.009Z,10.87
2023-02-18T17:59:11.875Z,10.85
2023-02-18T18:01:38.814Z,10.81
2023-02-18T18:04:11.743Z,10.78
2023-02-18T18:06:38.176Z,10.75
2023-02-18T18:09:04.598Z,10.73
2023-02-18T18:11:32.024Z,10.68
2023-02-18T18:13:59.825Z,10.65
2023-02-18T18:16:26.704Z,10.58
2023-02-18T18:18:53.337Z,10.53
2023-02-18T18:21:35.013Z,10.53
2023-02-18T18:24:01.733Z,10.50
2023-02-18T18:26:29.033Z,10.45
2023-02-18T18:28:55.394Z,10.42
2023-02-18T18:31:22.028Z,10.40
2023-02-18T18:33:51.339Z,10.39
2023-02-18T18:36:20.006Z,10.37
2023-02-18T18:38:47.085Z,10.36
2023-02-18T18:41:16.034Z,10.35
2023-02-18T18:43:42.529Z,10.34
2023-02-18T18:46:09.131Z,10.35
2023-02-18T18:48:36.224Z,10.33
2023-02-18T18:51:03.246Z,10.32
2023-02-18T18:53:33.100Z,10.32
2023-02-18T18:56:02.811Z,10.31
2023-02-18T18:58:29.447Z,10.30
2023-02-18T19:00:58.481Z,10.31
2023-02-18T19:03:26.374Z,10.32
2023-02-18T19:05:53.242Z,10.32
2023-02-18T19:08:20.633Z,10.32
2023-02-18T19:10:52.774Z,10.33
2023-02-18T19:13:27.816Z,10.32
2023-02-18T19:16:06.094Z,10.32
2023-02-18T19:18:33.697Z,10.31
2023-02-18T19:21:01.851Z,10.31
2023-02-18T19:23:28.396Z,10.32
2023-02-18T19:25:54.815Z,10.32
2023-02-18T19:28:21.206Z,10.32
2023-02-18T19:30:47.660Z,10.31
2023-02-18T19:35:50.513Z,10.33
2023-02-18T19:38:18.533Z,10.31
2023-02-18T19:40:46.249Z,10.30
2023-02-18T19:43:13.165Z,10.26
2023-02-18T19:45:43.993Z,10.27
2023-02-18T19:48:11.956Z,10.25
2023-02-18T19:50:40.426Z,10.24
2023-02-18T19:53:06.836Z,10.20
2023-02-18T19:55:33.335Z,10.19
2023-02-18T19:58:00.113Z,10.16
2023-02-18T20:00:26.497Z,10.17
2023-02-18T20:02:52.994Z,10.15
2023-02-18T20:05:19.703Z,10.16
2023-02-18T20:07:46.718Z,10.15
2023-02-18T20:10:16.467Z,10.16
2023-02-18T20:12:43.186Z,10.12
2023-02-18T20:15:10.019Z,10.11
2023-02-18T20:17:38.240Z,10.11
2023-02-18T20:20:05.689Z,10.10
2023-02-18T20:22:32.100Z,10.10
2023-02-18T20:24:58.450Z,10.11
2023-02-18T20:27:25.007Z,10.08
2023-02-18T20:29:51.546Z,10.09
2023-02-18T20:32:19.102Z,10.09
2023-02-18T20:34:45.774Z,10.09
2023-02-18T20:37:12.123Z,10.07
2023-02-18T20:39:38.466Z,10.06
2023-02-18T20:42:15.576Z,10.05
2023-02-18T20:44:43.345Z,10.05
2023-02-18T20:47:09.794Z,10.03
2023-02-18T20:49:36.191Z,10.01
2023-02-18T20:52:02.713Z,10.02
2023-02-18T20:54:29.467Z,10.02
2023-02-18T20:56:55.956Z,10.00
2023-02-18T20:59:22.422Z,9.99
2023-02-18T21:01:48.983Z,9.97
2023-02-18T21:04:17.988Z,9.97
2023-02-18T21:06:47.508Z,9.98
2023-02-18T21:09:15.189Z,9.97
2023-02-18T21:11:42.311Z,9.97
2023-02-18T21:14:09.894Z,9.98
2023-02-18T21:16:40.159Z,9.97
2023-02-18T21:19:09.703Z,9.97
2023-02-18T21:21:36.309Z,9.97
2023-02-18T21:24:03.469Z,9.97
2023-02-18T21:26:30.182Z,9.99
2023-02-18T21:29:00.756Z,9.98
2023-02-18T21:31:30.190Z,9.99
2023-02-18T21:33:57.044Z,9.98
2023-02-18T21:36:24.300Z,9.97
2023-02-18T21:38:55.418Z,9.98
2023-02-18T21:41:22.036Z,9.99
2023-02-18T21:43:48.717Z,9.98
2023-02-18T21:46:21.441Z,10.00
2023-02-18T21:49:03.178Z,10.00
2023-02-18T21:51:54.198Z,9.99
2023-02-18T21:54:24.839Z,9.98
2023-02-18T21:56:51.706Z,9.98
2023-02-18T21:59:20.066Z,9.97
2023-02-18T22:01:47.482Z,9.96
2023-02-18T22:04:14.258Z,9.96
2023-02-18T22:06:40.730Z,9.96
2023-02-18T22:09:07.587Z,9.96
2023-02-18T22:11:34.257Z,9.96
2023-02-18T22:14:00.773Z,9.95
2023-02-18T22:16:28.240Z,9.94
2023-02-18T22:18:56.724Z,9.93
2023-02-18T22:21:23.446Z,9.94
2023-02-18T22:23:49.873Z,9.93
2023-02-18T22:26:16.408Z,9.93
2023-02-18T22:28:44.836Z,9.92
2023-02-18T22:31:12.707Z,9.91
2023-02-18T22:33:41.207Z,9.90
2023-02-18T22:36:11.029Z,9.91
2023-02-18T22:38:38.039Z,9.89
2023-02-18T22:41:10.250Z,9.89
2023-02-18T22:43:36.886Z,9.87
2023-02-18T22:46:10.085Z,9.87
2023-02-18T22:48:37.424Z,9.86
2023-02-18T22:51:10.736Z,9.87
2023-02-18T22:53:38.812Z,9.86
2023-02-18T22:56:14.656Z,9.86
2023-02-18T22:58:42.717Z,9.81
2023-02-18T23:01:28.720Z,9.82
2023-02-18T23:03:57.270Z,9.79
2023-02-18T23:06:24.063Z,9.79
2023-02-18T23:08:51.006Z,9.78
2023-02-18T23:11:19.522Z,9.78
2023-02-18T23:14:05.796Z,9.78
2023-02-18T23:16:33.047Z,9.78
2023-02-18T23:18:59.612Z,9.77
2023-02-18T23:21:26.181Z,9.76
2023-02-18T23:23:56.373Z,9.77
2023-02-18T23:26:25.591Z,9.76
2023-02-18T23:28:53.163Z,9.73
2023-02-18T23:31:25.438Z,9.75
2023-02-18T23:33:57.282Z,9.75
2023-02-18T23:36:26.436Z,9.73
2023-02-18T23:38:58.361Z,9.73
2023-02-18T23:41:25.611Z,9.70
2023-02-18T23:43:52.456Z,9.72
2023-02-18T23:46:22.451Z,9.72
2023-02-18T23:48:49.289Z,9.69
2023-02-18T23:51:18.820Z,9.69
2023-02-18T23:53:45.736Z,9.68
2023-02-18T23:56:13.576Z,9.68
2023-02-18T23:58:41.519Z,9.67
